createdAt,value
2017-11-26T00:00:43.202Z,0
2017-11-26T00:01:52.379Z,0
2017-11-26T00:03:01.315Z,0
2017-11-26T00:04:10.244Z,0
2017-11-26T00:05:19.441Z,0
2017-11-26T00:06:28.148Z,0
2017-11-26T00:07:37.345Z,0
2017-11-26T00:08:46.249Z,0
2017-11-26T00:09:55.187Z,0
2017-11-26T00:11:04.107Z,0
2017-11-26T00:12:12.768Z,0
2017-11-26T00:13:21.960Z,0
2017-11-26T00:14:31.127Z,0
2017-11-26T00:15:40.033Z,0
2017-11-26T00:16:49.204Z,0
2017-11-26T00:17:58.146Z,0
2017-11-26T00:19:06.803Z,0
2017-11-26T00:20:15.725Z,0
2017-11-26T00:21:25.179Z,0
2017-11-26T00:22:34.098Z,0
2017-11-26T00:23:43.597Z,0
2017-11-26T00:24:52.253Z,0
2017-11-26T00:26:02.269Z,0
2017-11-26T00:27:11.451Z,0
2017-11-26T00:28:20.624Z,0
2017-11-26T00:29:30.396Z,0
2017-11-26T00:30:39.360Z,0
2017-11-26T00:31:48.270Z,0
2017-11-26T00:32:57.213Z,0
2017-11-26T00:34:06.391Z,0
2017-11-26T00:35:15.303Z,0
2017-11-26T00:36:24.526Z,0
2017-11-26T00:37:33.736Z,0
2017-11-26T00:38:42.916Z,0
2017-11-26T00:39:52.106Z,0
2017-11-26T00:41:01.279Z,0
2017-11-26T00:42:10.460Z,0
2017-11-26T00:43:19.376Z,0
2017-11-26T00:44:28.291Z,0
2017-11-26T00:45:37.487Z,0
2017-11-26T00:46:46.680Z,0
2017-11-26T00:47:55.351Z,0
2017-11-26T00:49:04.271Z,0
2017-11-26T00:50:13.459Z,0
2017-11-26T00:51:22.644Z,0
2017-11-26T00:52:31.828Z,0
2017-11-26T00:53:40.493Z,0
2017-11-26T00:54:49.420Z,0
2017-11-26T00:55:58.620Z,0
2017-11-26T00:57:08.058Z,0
2017-11-26T00:58:17.001Z,0
2017-11-26T00:59:26.600Z,0
2017-11-26T01:00:35.850Z,0
2017-11-26T01:01:44.530Z,0
2017-11-26T01:02:53.487Z,0
2017-11-26T01:04:02.143Z,0
2017-11-26T01:05:10.800Z,0
2017-11-26T01:06:19.709Z,0
2017-11-26T01:07:28.928Z,0
2017-11-26T01:08:37.837Z,0
2017-11-26T01:09:47.318Z,0
2017-11-26T01:10:57.093Z,0
2017-11-26T01:12:06.013Z,0
2017-11-26T01:13:15.229Z,0
2017-11-26T01:14:24.973Z,0
2017-11-26T01:15:33.889Z,0
2017-11-26T01:16:43.060Z,0
2017-11-26T01:17:51.699Z,0
2017-11-26T01:19:00.937Z,0
2017-11-26T01:20:09.860Z,0
2017-11-26T01:21:18.808Z,0
2017-11-26T01:22:28.506Z,0
2017-11-26T01:23:37.443Z,0
2017-11-26T01:24:46.618Z,0
2017-11-26T01:25:55.556Z,0
2017-11-26T01:27:04.455Z,0
2017-11-26T01:28:13.634Z,0
2017-11-26T01:29:22.579Z,0
2017-11-26T01:30:31.492Z,0
2017-11-26T01:31:40.416Z,0
2017-11-26T01:32:49.581Z,0
2017-11-26T01:33:58.505Z,0
2017-11-26T01:35:07.976Z,0
2017-11-26T01:36:17.156Z,0
2017-11-26T01:37:26.104Z,0
2017-11-26T01:38:35.541Z,0
2017-11-26T01:39:44.192Z,0
2017-11-26T01:40:53.374Z,0
2017-11-26T01:42:02.282Z,0
2017-11-26T01:43:11.726Z,0
2017-11-26T01:44:20.904Z,0
2017-11-26T01:45:30.340Z,0
2017-11-26T01:46:39.516Z,0
2017-11-26T01:47:48.965Z,0
2017-11-26T01:48:57.903Z,0
2017-11-26T01:50:07.109Z,0
2017-11-26T01:51:16.284Z,0
2017-11-26T01:52:25.727Z,0
2017-11-26T01:53:34.630Z,0
2017-11-26T01:54:44.068Z,0
2017-11-26T01:55:53.034Z,0
2017-11-26T01:57:02.725Z,0
2017-11-26T01:58:11.627Z,0
2017-11-26T01:59:21.072Z,0
2017-11-26T02:00:29.722Z,0
2017-11-26T02:01:39.173Z,0
2017-11-26T02:02:48.788Z,0
2017-11-26T02:03:57.957Z,0
2017-11-26T02:05:06.614Z,0
2017-11-26T02:06:15.529Z,0
2017-11-26T02:07:24.695Z,0
2017-11-26T02:08:33.885Z,0
2017-11-26T02:09:43.322Z,0
2017-11-26T02:10:51.954Z,0
2017-11-26T02:12:01.128Z,0
2017-11-26T02:13:10.296Z,0
2017-11-26T02:14:19.732Z,0
2017-11-26T02:15:28.931Z,0
2017-11-26T02:16:38.129Z,0
2017-11-26T02:17:47.573Z,0
2017-11-26T02:18:56.485Z,0
2017-11-26T02:20:05.939Z,0
2017-11-26T02:21:14.846Z,0
2017-11-26T02:22:24.299Z,0
2017-11-26T02:23:33.483Z,0
2017-11-26T02:24:42.666Z,0
2017-11-26T02:25:51.883Z,0
2017-11-26T02:27:01.336Z,0
2017-11-26T02:28:10.766Z,0
2017-11-26T02:29:19.946Z,0
2017-11-26T02:30:29.454Z,0
2017-11-26T02:31:39.163Z,0
2017-11-26T02:32:48.380Z,0
2017-11-26T02:33:57.291Z,0
2017-11-26T02:35:06.994Z,0
2017-11-26T02:36:16.164Z,0
2017-11-26T02:37:25.079Z,0
2017-11-26T02:38:34.795Z,0
2017-11-26T02:39:43.769Z,0
2017-11-26T02:40:52.957Z,0
2017-11-26T02:42:02.405Z,0
2017-11-26T02:43:11.859Z,0
2017-11-26T02:44:21.042Z,0
2017-11-26T02:45:29.972Z,0
2017-11-26T02:46:39.397Z,0
2017-11-26T02:47:48.356Z,0
2017-11-26T02:48:58.086Z,0
2017-11-26T02:50:06.755Z,0
2017-11-26T02:51:16.239Z,0
2017-11-26T02:52:25.153Z,0
2017-11-26T02:53:34.338Z,0
2017-11-26T02:54:43.791Z,0
2017-11-26T02:55:52.721Z,0
2017-11-26T02:57:01.918Z,0
2017-11-26T02:58:11.697Z,0
2017-11-26T02:59:20.613Z,0
2017-11-26T03:00:29.268Z,0
2017-11-26T03:01:38.767Z,0
2017-11-26T03:02:48.003Z,0
2017-11-26T03:03:56.894Z,0
2017-11-26T03:05:06.076Z,0
2017-11-26T03:06:16.036Z,0
2017-11-26T03:07:25.463Z,0
2017-11-26T03:08:34.383Z,0
2017-11-26T03:09:43.051Z,0
2017-11-26T03:10:51.982Z,0
2017-11-26T03:12:00.621Z,0
2017-11-26T03:13:10.089Z,0
2017-11-26T03:14:19.281Z,0
2017-11-26T03:15:28.465Z,0
2017-11-26T03:16:37.908Z,0
2017-11-26T03:17:47.108Z,0
2017-11-26T03:18:56.568Z,0
2017-11-26T03:20:05.731Z,0
2017-11-26T03:21:14.638Z,0
2017-11-26T03:22:24.081Z,0
2017-11-26T03:23:33.047Z,0
2017-11-26T03:24:41.998Z,0
2017-11-26T03:25:50.688Z,0
2017-11-26T03:26:59.853Z,0
2017-11-26T03:28:09.038Z,0
2017-11-26T03:29:18.243Z,0
2017-11-26T03:30:27.734Z,0
2017-11-26T03:31:36.384Z,0
2017-11-26T03:32:45.567Z,0
2017-11-26T03:33:54.482Z,0
2017-11-26T03:35:03.717Z,0
2017-11-26T03:36:12.634Z,0
2017-11-26T03:37:22.101Z,0
2017-11-26T03:38:30.768Z,0
2017-11-26T03:39:39.692Z,0
2017-11-26T03:40:48.609Z,0
2017-11-26T03:41:58.350Z,0
2017-11-26T03:43:07.472Z,0
2017-11-26T03:44:16.642Z,0
2017-11-26T03:45:25.569Z,0
2017-11-26T03:46:34.736Z,0
2017-11-26T03:47:43.654Z,0
2017-11-26T03:48:52.565Z,0
2017-11-26T03:50:02.026Z,0
2017-11-26T03:51:10.947Z,0
2017-11-26T03:52:20.162Z,0
2017-11-26T03:53:29.120Z,0
2017-11-26T03:54:38.310Z,0
2017-11-26T03:55:47.763Z,0
2017-11-26T03:56:56.941Z,0
2017-11-26T03:58:06.118Z,0
2017-11-26T03:59:15.040Z,0
2017-11-26T04:00:23.952Z,0
2017-11-26T04:01:32.852Z,0
2017-11-26T04:02:42.063Z,0
2017-11-26T04:03:51.505Z,0
2017-11-26T04:05:00.412Z,0
2017-11-26T04:06:09.333Z,0
2017-11-26T04:07:18.513Z,0
2017-11-26T04:08:27.954Z,0
2017-11-26T04:09:36.876Z,0
2017-11-26T04:10:46.106Z,0
2017-11-26T04:11:55.031Z,0
2017-11-26T04:13:04.494Z,0
2017-11-26T04:14:13.131Z,0
2017-11-26T04:15:22.297Z,0
2017-11-26T04:16:31.489Z,0
2017-11-26T04:17:40.148Z,0
2017-11-26T04:18:49.358Z,0
2017-11-26T04:19:58.254Z,0
2017-11-26T04:21:07.450Z,0
2017-11-26T04:22:16.629Z,0
2017-11-26T04:23:26.078Z,0
2017-11-26T04:24:35.040Z,0
2017-11-26T04:25:44.504Z,0
2017-11-26T04:26:53.417Z,0
2017-11-26T04:28:02.589Z,0
2017-11-26T04:29:11.773Z,0
2017-11-26T04:30:20.952Z,0
2017-11-26T04:31:30.372Z,0
2017-11-26T04:32:39.907Z,0
2017-11-26T04:33:49.098Z,0
2017-11-26T04:34:58.542Z,0
2017-11-26T04:36:07.753Z,0
2017-11-26T04:37:17.018Z,0
2017-11-26T04:38:26.214Z,0
2017-11-26T04:39:35.528Z,0
2017-11-26T04:40:44.696Z,0
2017-11-26T04:41:54.410Z,0
2017-11-26T04:43:03.625Z,0
2017-11-26T04:44:12.542Z,0
2017-11-26T04:45:21.738Z,0
2017-11-26T04:46:30.659Z,0
2017-11-26T04:47:40.107Z,0
2017-11-26T04:48:49.008Z,0
2017-11-26T04:49:58.461Z,0
2017-11-26T04:51:07.118Z,0
2017-11-26T04:52:16.570Z,0
2017-11-26T04:53:25.771Z,0
2017-11-26T04:54:34.680Z,0
2017-11-26T04:55:44.148Z,0
2017-11-26T04:56:53.344Z,0
2017-11-26T04:58:02.787Z,0
2017-11-26T04:59:12.253Z,0
2017-11-26T05:00:20.903Z,0
2017-11-26T05:01:30.105Z,0
2017-11-26T05:02:39.043Z,0
2017-11-26T05:03:47.982Z,0
2017-11-26T05:04:57.167Z,0
2017-11-26T05:06:06.362Z,0
2017-11-26T05:07:15.533Z,0
2017-11-26T05:08:24.478Z,0
2017-11-26T05:09:33.387Z,0
2017-11-26T05:10:42.034Z,0
2017-11-26T05:11:51.272Z,0
2017-11-26T05:13:00.176Z,0
2017-11-26T05:14:09.368Z,0
2017-11-26T05:15:18.816Z,0
2017-11-26T05:16:28.022Z,0
2017-11-26T05:17:37.208Z,0
2017-11-26T05:18:46.393Z,0
2017-11-26T05:19:55.617Z,0
2017-11-26T05:21:05.359Z,0
2017-11-26T05:22:14.278Z,0
2017-11-26T05:23:23.185Z,0
2017-11-26T05:24:32.181Z,0
2017-11-26T05:25:41.099Z,0
2017-11-26T05:26:50.529Z,0
2017-11-26T05:27:59.698Z,0
2017-11-26T05:29:08.868Z,0
2017-11-26T05:30:17.844Z,0
2017-11-26T05:31:27.550Z,0
2017-11-26T05:32:36.478Z,0
2017-11-26T05:33:46.380Z,0
2017-11-26T05:34:55.329Z,0
2017-11-26T05:36:04.806Z,0
2017-11-26T05:37:14.036Z,0
2017-11-26T05:38:22.965Z,0
2017-11-26T05:39:32.160Z,0
2017-11-26T05:40:41.359Z,0
2017-11-26T05:41:50.568Z,0
2017-11-26T05:42:59.515Z,0
2017-11-26T05:44:08.706Z,0
2017-11-26T05:45:17.614Z,0
2017-11-26T05:46:27.343Z,0
2017-11-26T05:47:36.524Z,0
2017-11-26T05:48:45.747Z,0
2017-11-26T05:49:55.176Z,0
2017-11-26T05:51:04.346Z,0
2017-11-26T05:52:13.245Z,0
2017-11-26T05:53:21.896Z,0
2017-11-26T05:54:30.806Z,0
2017-11-26T05:55:40.034Z,0
2017-11-26T05:56:48.693Z,0
2017-11-26T05:57:58.155Z,0
2017-11-26T05:59:07.362Z,0
2017-11-26T06:00:16.544Z,0
2017-11-26T06:01:25.722Z,0
2017-11-26T06:02:34.653Z,0
2017-11-26T06:03:43.575Z,0
2017-11-26T06:04:52.507Z,0
2017-11-26T06:06:01.437Z,0
2017-11-26T06:07:10.352Z,0
2017-11-26T06:08:19.521Z,0
2017-11-26T06:09:28.706Z,0
2017-11-26T06:10:38.167Z,0
2017-11-26T06:11:47.348Z,0
2017-11-26T06:12:56.536Z,0
2017-11-26T06:14:05.972Z,0
2017-11-26T06:15:14.634Z,0
2017-11-26T06:16:24.091Z,0
2017-11-26T06:17:33.966Z,0
2017-11-26T06:18:42.874Z,0
2017-11-26T06:19:51.526Z,0
2017-11-26T06:21:00.445Z,0
2017-11-26T06:22:09.877Z,0
2017-11-26T06:23:19.044Z,0
2017-11-26T06:24:27.954Z,0
2017-11-26T06:25:37.139Z,0
2017-11-26T06:26:46.310Z,0
2017-11-26T06:27:55.226Z,0
2017-11-26T06:29:04.415Z,0
2017-11-26T06:30:13.638Z,0
2017-11-26T06:31:23.032Z,0
2017-11-26T06:32:32.239Z,0
2017-11-26T06:33:41.141Z,0
2017-11-26T06:34:50.594Z,0
2017-11-26T06:35:59.539Z,0
2017-11-26T06:37:08.984Z,0
2017-11-26T06:38:18.171Z,0
2017-11-26T06:39:27.605Z,0
2017-11-26T06:40:36.789Z,4
2017-11-26T06:41:45.988Z,4
2017-11-26T06:42:55.186Z,0
2017-11-26T06:44:04.362Z,4
2017-11-26T06:45:13.279Z,4
2017-11-26T06:46:22.754Z,4
2017-11-26T06:47:32.210Z,4
2017-11-26T06:48:41.385Z,4
2017-11-26T06:49:50.571Z,8
2017-11-26T06:50:59.564Z,8
2017-11-26T06:52:09.264Z,12
2017-11-26T06:53:17.909Z,8
2017-11-26T06:54:27.404Z,12
2017-11-26T06:55:36.014Z,12
2017-11-26T06:56:45.470Z,12
2017-11-26T06:57:54.641Z,20
2017-11-26T06:59:03.829Z,24
2017-11-26T07:00:13.272Z,24
2017-11-26T07:01:22.473Z,28
2017-11-26T07:02:31.646Z,28
2017-11-26T07:03:40.836Z,32
2017-11-26T07:04:49.490Z,32
2017-11-26T07:05:58.429Z,40
2017-11-26T07:07:07.354Z,44
2017-11-26T07:08:16.261Z,52
2017-11-26T07:09:25.971Z,52
2017-11-26T07:10:35.140Z,56
2017-11-26T07:11:44.317Z,64
2017-11-26T07:12:53.220Z,64
2017-11-26T07:14:02.443Z,72
2017-11-26T07:15:11.393Z,72
2017-11-26T07:16:20.868Z,72
2017-11-26T07:17:29.799Z,76
2017-11-26T07:18:38.708Z,80
2017-11-26T07:19:48.143Z,84
2017-11-26T07:20:56.789Z,92
2017-11-26T07:22:05.963Z,92
2017-11-26T07:23:15.397Z,100
2017-11-26T07:24:24.824Z,100
2017-11-26T07:25:34.020Z,104
2017-11-26T07:26:43.743Z,108
2017-11-26T07:27:52.921Z,112
2017-11-26T07:29:01.840Z,120
2017-11-26T07:30:11.280Z,132
2017-11-26T07:31:20.990Z,144
2017-11-26T07:32:30.718Z,144
2017-11-26T07:33:39.632Z,148
2017-11-26T07:34:48.796Z,152
2017-11-26T07:35:58.522Z,156
2017-11-26T07:37:07.434Z,156
2017-11-26T07:38:16.594Z,156
2017-11-26T07:39:25.509Z,152
2017-11-26T07:40:34.680Z,152
2017-11-26T07:41:43.891Z,156
2017-11-26T07:42:52.523Z,160
2017-11-26T07:44:02.515Z,160
2017-11-26T07:45:11.296Z,168
2017-11-26T07:46:20.460Z,188
2017-11-26T07:47:29.356Z,200
2017-11-26T07:48:38.274Z,216
2017-11-26T07:49:47.700Z,220
2017-11-26T07:50:56.889Z,220
2017-11-26T07:52:05.574Z,236
2017-11-26T07:53:14.505Z,256
2017-11-26T07:54:24.206Z,272
2017-11-26T07:55:33.485Z,280
2017-11-26T07:56:42.139Z,292
2017-11-26T07:57:51.083Z,304
2017-11-26T07:58:59.983Z,308
2017-11-26T08:00:08.870Z,304
2017-11-26T08:01:17.516Z,304
2017-11-26T08:02:26.426Z,288
2017-11-26T08:03:35.588Z,264
2017-11-26T08:04:45.014Z,244
2017-11-26T08:05:54.474Z,228
2017-11-26T08:07:04.154Z,220
2017-11-26T08:08:13.574Z,216
2017-11-26T08:09:23.034Z,220
2017-11-26T08:10:31.955Z,220
2017-11-26T08:11:40.922Z,228
2017-11-26T08:12:50.101Z,224
2017-11-26T08:13:59.535Z,220
2017-11-26T08:15:08.496Z,224
2017-11-26T08:16:17.934Z,236
2017-11-26T08:17:27.376Z,244
2017-11-26T08:18:36.558Z,244
2017-11-26T08:19:45.465Z,248
2017-11-26T08:20:55.157Z,248
2017-11-26T08:22:04.080Z,256
2017-11-26T08:23:12.989Z,268
2017-11-26T08:24:22.156Z,276
2017-11-26T08:25:31.314Z,284
2017-11-26T08:26:40.485Z,288
2017-11-26T08:27:49.398Z,276
2017-11-26T08:28:58.291Z,276
2017-11-26T08:30:06.938Z,292
2017-11-26T08:31:15.588Z,292
2017-11-26T08:32:24.997Z,296
2017-11-26T08:33:33.649Z,316
2017-11-26T08:34:42.821Z,336
2017-11-26T08:35:51.994Z,356
2017-11-26T08:37:00.628Z,372
2017-11-26T08:38:09.824Z,368
2017-11-26T08:39:18.999Z,364
2017-11-26T08:40:28.437Z,368
2017-11-26T08:41:37.359Z,368
2017-11-26T08:42:46.260Z,368
2017-11-26T08:43:55.688Z,376
2017-11-26T08:45:05.598Z,392
2017-11-26T08:46:14.788Z,408
2017-11-26T08:47:23.978Z,420
2017-11-26T08:48:32.922Z,436
2017-11-26T08:49:42.242Z,464
2017-11-26T08:50:50.874Z,476
2017-11-26T08:51:59.800Z,468
2017-11-26T08:53:09.229Z,444
2017-11-26T08:54:18.669Z,428
2017-11-26T08:55:28.142Z,408
2017-11-26T08:56:37.306Z,384
2017-11-26T08:57:46.213Z,376
2017-11-26T08:58:54.890Z,396
2017-11-26T09:00:03.820Z,420
2017-11-26T09:01:14.004Z,440
2017-11-26T09:02:22.921Z,444
2017-11-26T09:03:31.833Z,444
2017-11-26T09:04:41.806Z,436
2017-11-26T09:05:50.970Z,432
2017-11-26T09:06:59.861Z,420
2017-11-26T09:08:09.305Z,412
2017-11-26T09:09:18.338Z,388
2017-11-26T09:10:27.784Z,396
2017-11-26T09:11:36.700Z,396
2017-11-26T09:12:46.371Z,384
2017-11-26T09:13:56.447Z,388
2017-11-26T09:15:05.102Z,376
2017-11-26T09:16:14.987Z,376
2017-11-26T09:17:24.177Z,364
2017-11-26T09:18:33.150Z,376
2017-11-26T09:19:42.033Z,324
2017-11-26T09:20:51.789Z,396
2017-11-26T09:22:00.758Z,400
2017-11-26T09:23:09.767Z,316
2017-11-26T09:24:19.208Z,352
2017-11-26T09:25:28.121Z,388
2017-11-26T09:26:37.045Z,388
2017-11-26T09:27:45.686Z,400
2017-11-26T09:28:55.134Z,500
2017-11-26T09:30:03.777Z,464
2017-11-26T09:31:12.957Z,460
2017-11-26T09:32:22.138Z,532
2017-11-26T09:33:31.857Z,484
2017-11-26T09:34:41.304Z,500
2017-11-26T09:35:49.937Z,612
2017-11-26T09:36:58.868Z,596
2017-11-26T09:38:07.781Z,544
2017-11-26T09:39:16.684Z,620
2017-11-26T09:40:26.195Z,580
2017-11-26T09:41:35.103Z,556
2017-11-26T09:42:44.007Z,524
2017-11-26T09:43:52.975Z,592
2017-11-26T09:45:02.775Z,596
2017-11-26T09:46:11.723Z,596
2017-11-26T09:47:20.643Z,556
2017-11-26T09:48:29.332Z,504
2017-11-26T09:49:38.605Z,516
2017-11-26T09:50:47.834Z,520
2017-11-26T09:51:56.698Z,524
2017-11-26T09:53:05.863Z,532
2017-11-26T09:54:14.824Z,532
2017-11-26T09:55:23.741Z,504
2017-11-26T09:56:32.648Z,472
2017-11-26T09:57:41.571Z,468
2017-11-26T09:58:50.497Z,500
2017-11-26T09:59:59.719Z,560
2017-11-26T10:01:08.568Z,608
2017-11-26T10:02:17.995Z,632
2017-11-26T10:03:26.970Z,628
2017-11-26T10:04:36.135Z,628
2017-11-26T10:05:45.573Z,628
2017-11-26T10:06:55.071Z,628
2017-11-26T10:08:04.243Z,616
2017-11-26T10:09:13.965Z,620
2017-11-26T10:10:22.901Z,652
2017-11-26T10:11:32.353Z,692
2017-11-26T10:12:42.364Z,720
2017-11-26T10:13:51.273Z,720
2017-11-26T10:15:00.716Z,720
2017-11-26T10:16:09.915Z,736
2017-11-26T10:17:18.875Z,764
2017-11-26T10:18:27.800Z,792
2017-11-26T10:19:36.988Z,796
2017-11-26T10:20:46.211Z,884
2017-11-26T10:21:54.859Z,932
2017-11-26T10:23:03.790Z,976
2017-11-26T10:24:13.522Z,988
2017-11-26T10:25:22.727Z,940
2017-11-26T10:26:31.898Z,936
2017-11-26T10:27:41.128Z,940
2017-11-26T10:28:50.085Z,948
2017-11-26T10:29:59.267Z,956
2017-11-26T10:31:08.443Z,960
2017-11-26T10:32:17.621Z,956
2017-11-26T10:33:27.055Z,940
2017-11-26T10:34:35.685Z,932
2017-11-26T10:35:44.390Z,952
2017-11-26T10:36:53.361Z,956
2017-11-26T10:38:02.389Z,948
2017-11-26T10:39:13.356Z,932
2017-11-26T10:40:22.879Z,916
2017-11-26T10:41:32.356Z,908
2017-11-26T10:42:43.383Z,896
2017-11-26T10:43:52.690Z,908
2017-11-26T10:45:01.487Z,956
2017-11-26T10:46:10.407Z,1020
2017-11-26T10:47:19.841Z,968
2017-11-26T10:48:29.309Z,1040
2017-11-26T10:49:38.203Z,1048
2017-11-26T10:50:47.367Z,1052
2017-11-26T10:51:56.269Z,1044
2017-11-26T10:53:04.913Z,1056
2017-11-26T10:54:13.563Z,1008
2017-11-26T10:55:22.728Z,920
2017-11-26T10:56:31.394Z,992
2017-11-26T10:57:40.326Z,908
2017-11-26T10:58:49.495Z,996
2017-11-26T10:59:59.206Z,980
2017-11-26T11:01:08.155Z,1016
2017-11-26T11:02:17.610Z,880
2017-11-26T11:03:26.797Z,960
2017-11-26T11:04:36.007Z,984
2017-11-26T11:05:45.182Z,1048
2017-11-26T11:06:55.773Z,1048
2017-11-26T11:08:04.850Z,944
2017-11-26T11:09:14.055Z,980
2017-11-26T11:10:22.991Z,912
2017-11-26T11:11:31.964Z,892
2017-11-26T11:12:40.612Z,992
2017-11-26T11:13:49.797Z,1044
2017-11-26T11:14:59.002Z,1140
2017-11-26T11:16:07.924Z,1120
2017-11-26T11:17:17.094Z,1112
2017-11-26T11:18:26.525Z,1084
2017-11-26T11:19:35.709Z,1112
2017-11-26T11:20:45.170Z,1108
2017-11-26T11:21:54.657Z,1108
2017-11-26T11:23:03.844Z,1128
2017-11-26T11:24:12.530Z,1144
2017-11-26T11:25:21.703Z,1164
2017-11-26T11:26:30.639Z,1192
2017-11-26T11:27:39.302Z,1144
2017-11-26T11:28:48.463Z,1168
2017-11-26T11:29:57.381Z,1100
2017-11-26T11:31:06.553Z,1080
2017-11-26T11:32:16.267Z,1036
2017-11-26T11:33:25.155Z,1040
2017-11-26T11:34:34.067Z,1020
2017-11-26T11:35:43.246Z,908
2017-11-26T11:36:52.430Z,1012
2017-11-26T11:38:01.387Z,1032
2017-11-26T11:39:11.107Z,992
2017-11-26T11:40:20.022Z,1004
2017-11-26T11:41:28.926Z,964
2017-11-26T11:42:38.106Z,984
2017-11-26T11:43:46.735Z,1028
2017-11-26T11:44:56.302Z,1032
2017-11-26T11:46:05.738Z,1004
2017-11-26T11:47:17.897Z,984
2017-11-26T11:48:28.444Z,964
2017-11-26T11:49:37.889Z,944
2017-11-26T11:50:47.357Z,920
2017-11-26T11:51:56.276Z,904
2017-11-26T11:53:05.456Z,880
2017-11-26T11:54:14.644Z,864
2017-11-26T11:55:23.845Z,852
2017-11-26T11:56:33.337Z,836
2017-11-26T11:57:42.547Z,812
2017-11-26T11:58:51.992Z,804
2017-11-26T12:00:01.697Z,852
2017-11-26T12:01:10.607Z,884
2017-11-26T12:02:19.525Z,936
2017-11-26T12:03:28.705Z,1024
2017-11-26T12:04:37.623Z,972
2017-11-26T12:05:46.848Z,824
2017-11-26T12:06:56.035Z,764
2017-11-26T12:08:04.701Z,692
2017-11-26T12:09:13.353Z,752
2017-11-26T12:10:22.800Z,592
2017-11-26T12:11:31.985Z,728
2017-11-26T12:12:40.931Z,772
2017-11-26T12:13:50.101Z,732
2017-11-26T12:14:58.769Z,992
2017-11-26T12:16:07.406Z,1076
2017-11-26T12:17:16.886Z,1116
2017-11-26T12:18:26.347Z,1144
2017-11-26T12:19:35.244Z,1100
2017-11-26T12:20:44.413Z,980
2017-11-26T12:21:53.334Z,1000
2017-11-26T12:23:02.271Z,1008
2017-11-26T12:24:10.941Z,1032
2017-11-26T12:25:20.148Z,1064
2017-11-26T12:26:29.904Z,1056
2017-11-26T12:27:38.829Z,1076
2017-11-26T12:28:47.998Z,1084
2017-11-26T12:29:57.437Z,1076
2017-11-26T12:31:06.095Z,1072
2017-11-26T12:32:15.309Z,1076
2017-11-26T12:33:24.484Z,972
2017-11-26T12:34:33.387Z,968
2017-11-26T12:35:42.549Z,960
2017-11-26T12:36:52.258Z,936
2017-11-26T12:38:01.434Z,912
2017-11-26T12:39:10.356Z,892
2017-11-26T12:40:19.871Z,828
2017-11-26T12:41:28.778Z,816
2017-11-26T12:42:38.510Z,772
2017-11-26T12:43:47.729Z,720
2017-11-26T12:44:56.651Z,732
2017-11-26T12:46:06.364Z,808
2017-11-26T12:47:15.276Z,748
2017-11-26T12:48:24.219Z,804
2017-11-26T12:49:33.153Z,944
2017-11-26T12:50:42.318Z,864
2017-11-26T12:51:51.483Z,848
2017-11-26T12:53:00.391Z,880
2017-11-26T12:54:09.286Z,880
2017-11-26T12:55:18.200Z,684
2017-11-26T12:56:27.137Z,660
2017-11-26T12:57:36.315Z,400
2017-11-26T12:58:45.213Z,480
2017-11-26T12:59:54.126Z,580
2017-11-26T13:01:02.798Z,588
2017-11-26T13:02:12.256Z,524
2017-11-26T13:03:21.708Z,612
2017-11-26T13:04:30.887Z,544
2017-11-26T13:05:40.063Z,492
2017-11-26T13:06:49.527Z,516
2017-11-26T13:07:58.437Z,684
2017-11-26T13:09:07.075Z,704
2017-11-26T13:10:16.246Z,720
2017-11-26T13:11:25.232Z,560
2017-11-26T13:12:34.430Z,768
2017-11-26T13:13:43.619Z,900
2017-11-26T13:14:52.807Z,796
2017-11-26T13:16:02.002Z,796
2017-11-26T13:17:11.430Z,732
2017-11-26T13:18:20.589Z,780
2017-11-26T13:19:29.762Z,732
2017-11-26T13:20:38.689Z,684
2017-11-26T13:21:47.587Z,616
2017-11-26T13:22:57.069Z,644
2017-11-26T13:24:05.978Z,576
2017-11-26T13:25:16.287Z,548
2017-11-26T13:26:25.518Z,492
2017-11-26T13:27:34.953Z,456
2017-11-26T13:28:44.126Z,380
2017-11-26T13:29:53.040Z,304
2017-11-26T13:31:02.504Z,296
2017-11-26T13:32:11.433Z,308
2017-11-26T13:33:20.857Z,336
2017-11-26T13:34:30.307Z,368
2017-11-26T13:35:39.544Z,424
2017-11-26T13:36:48.726Z,448
2017-11-26T13:37:57.669Z,540
2017-11-26T13:39:06.320Z,572
2017-11-26T13:40:15.254Z,492
2017-11-26T13:41:24.189Z,436
2017-11-26T13:42:33.816Z,344
2017-11-26T13:43:42.739Z,304
2017-11-26T13:44:51.373Z,420
2017-11-26T13:46:00.861Z,384
2017-11-26T13:47:10.083Z,304
2017-11-26T13:48:18.736Z,364
2017-11-26T13:49:27.918Z,308
2017-11-26T13:50:37.105Z,328
2017-11-26T13:51:46.004Z,268
2017-11-26T13:52:54.651Z,396
2017-11-26T13:54:04.085Z,352
2017-11-26T13:55:13.286Z,392
2017-11-26T13:56:22.895Z,428
2017-11-26T13:57:32.711Z,236
2017-11-26T13:58:41.936Z,260
2017-11-26T13:59:50.842Z,384
2017-11-26T14:01:00.538Z,384
2017-11-26T14:02:09.429Z,456
2017-11-26T14:03:18.109Z,460
2017-11-26T14:04:27.539Z,404
2017-11-26T14:05:37.267Z,348
2017-11-26T14:06:46.427Z,392
2017-11-26T14:07:55.864Z,452
2017-11-26T14:09:04.765Z,544
2017-11-26T14:10:14.459Z,612
2017-11-26T14:11:23.387Z,648
2017-11-26T14:12:33.363Z,684
2017-11-26T14:13:42.276Z,592
2017-11-26T14:14:51.186Z,532
2017-11-26T14:16:00.107Z,472
2017-11-26T14:17:09.278Z,504
2017-11-26T14:18:18.704Z,368
2017-11-26T14:19:27.901Z,296
2017-11-26T14:20:37.378Z,264
2017-11-26T14:21:46.563Z,252
2017-11-26T14:22:55.466Z,332
2017-11-26T14:24:04.629Z,348
2017-11-26T14:25:13.784Z,292
2017-11-26T14:26:22.706Z,296
2017-11-26T14:27:31.880Z,284
2017-11-26T14:28:41.389Z,268
2017-11-26T14:29:50.827Z,300
2017-11-26T14:31:00.017Z,380
2017-11-26T14:32:09.211Z,412
2017-11-26T14:33:18.653Z,424
2017-11-26T14:34:27.569Z,436
2017-11-26T14:35:37.289Z,436
2017-11-26T14:36:46.452Z,384
2017-11-26T14:37:55.636Z,376
2017-11-26T14:39:04.815Z,372
2017-11-26T14:40:14.020Z,360
2017-11-26T14:41:22.937Z,324
2017-11-26T14:42:32.627Z,308
2017-11-26T14:43:41.275Z,268
2017-11-26T14:44:50.217Z,228
2017-11-26T14:45:59.418Z,204
2017-11-26T14:47:08.875Z,232
2017-11-26T14:48:18.607Z,228
2017-11-26T14:49:27.793Z,224
2017-11-26T14:50:36.753Z,212
2017-11-26T14:51:45.680Z,152
2017-11-26T14:52:54.368Z,152
2017-11-26T14:54:03.856Z,116
2017-11-26T14:55:13.049Z,104
2017-11-26T14:56:21.960Z,100
2017-11-26T14:57:30.618Z,96
2017-11-26T14:58:40.089Z,80
2017-11-26T14:59:49.271Z,88
2017-11-26T15:00:57.951Z,88
2017-11-26T15:02:06.881Z,92
2017-11-26T15:03:15.791Z,88
2017-11-26T15:04:24.969Z,88
2017-11-26T15:05:33.945Z,84
2017-11-26T15:06:43.399Z,72
2017-11-26T15:07:52.583Z,64
2017-11-26T15:09:01.242Z,64
2017-11-26T15:10:10.440Z,72
2017-11-26T15:11:19.631Z,60
2017-11-26T15:12:28.817Z,68
2017-11-26T15:13:38.328Z,72
2017-11-26T15:14:47.548Z,64
2017-11-26T15:15:56.472Z,56
2017-11-26T15:17:05.402Z,48
2017-11-26T15:18:14.054Z,40
2017-11-26T15:19:22.705Z,40
2017-11-26T15:20:31.645Z,40
2017-11-26T15:21:41.205Z,36
2017-11-26T15:22:50.679Z,36
2017-11-26T15:23:59.641Z,36
2017-11-26T15:25:08.582Z,40
2017-11-26T15:26:18.040Z,36
2017-11-26T15:27:27.213Z,32
2017-11-26T15:28:36.434Z,36
2017-11-26T15:29:45.640Z,28
2017-11-26T15:30:55.114Z,20
2017-11-26T15:32:04.092Z,20
2017-11-26T15:33:13.313Z,20
2017-11-26T15:34:22.773Z,20
2017-11-26T15:35:31.988Z,20
2017-11-26T15:36:41.428Z,20
2017-11-26T15:37:50.355Z,16
2017-11-26T15:39:00.069Z,12
2017-11-26T15:40:08.994Z,8
2017-11-26T15:41:17.684Z,12
2017-11-26T15:42:26.587Z,8
2017-11-26T15:43:35.512Z,12
2017-11-26T15:44:44.458Z,8
2017-11-26T15:45:53.378Z,8
2017-11-26T15:47:02.022Z,4
2017-11-26T15:48:10.954Z,4
2017-11-26T15:49:20.424Z,4
2017-11-26T15:50:29.613Z,0
2017-11-26T15:51:38.584Z,4
2017-11-26T15:52:47.654Z,4
2017-11-26T15:53:56.654Z,0
2017-11-26T15:55:05.581Z,0
2017-11-26T15:56:15.047Z,0
2017-11-26T15:57:23.703Z,0
2017-11-26T15:58:32.476Z,0
2017-11-26T15:59:41.434Z,0
2017-11-26T16:00:50.945Z,0
2017-11-26T16:01:59.849Z,0
2017-11-26T16:03:09.295Z,0
2017-11-26T16:04:18.507Z,0
2017-11-26T16:05:27.697Z,0
2017-11-26T16:06:36.854Z,0
2017-11-26T16:07:46.040Z,0
2017-11-26T16:08:54.955Z,0
2017-11-26T16:10:04.383Z,0
2017-11-26T16:11:13.293Z,0
2017-11-26T16:12:22.492Z,0
2017-11-26T16:13:32.257Z,0
2017-11-26T16:14:41.450Z,0
2017-11-26T16:15:50.371Z,0
2017-11-26T16:16:59.287Z,0
2017-11-26T16:18:08.741Z,4
2017-11-26T16:19:18.178Z,4
2017-11-26T16:20:27.629Z,4
2017-11-26T16:21:37.729Z,0
2017-11-26T16:22:47.166Z,0
2017-11-26T16:23:56.083Z,0